Terminal Aerodrome Forecast
Issued by NWS

Home | Current Version | Previous Version | Text Only | Print | Product List | Glossary On
Versions: 1 2 3 4 5 6 7 8 9 10 11 12 13 14 15 16 17 18 19 20 21 22 23 24
159
FTUS43 KILX 251744 AAB
TAFCMI
TAF AMD
KCMI 251744Z 2518/2618 28018KT P6SM VCSH BKN045
     FM252200 29014G22KT P6SM VCSH SCT060
     FM260000 29010KT P6SM SCT200
     FM260800 22004KT P6SM FEW140
     FM261500 19013KT P6SM SCT150=

USA.gov is the U.S. government's official web portal to all federal, state and local government web resources and services.